sensor_id;sensor_type;location;lat;lon;timestamp;temperature;humidity
27114;DHT22;14648;49.730;8.614;2023-06-22T00:00:58;24.80;55.80
27114;DHT22;14648;49.730;8.614;2023-06-22T00:03:24;24.90;55.60
27114;DHT22;14648;49.730;8.614;2023-06-22T00:05:51;24.90;55.40
27114;DHT22;14648;49.730;8.614;2023-06-22T00:08:18;25.00;55.30
27114;DHT22;14648;49.730;8.614;2023-06-22T00:10:45;24.90;55.40
27114;DHT22;14648;49.730;8.614;2023-06-22T00:13:12;24.90;55.50
27114;DHT22;14648;49.730;8.614;2023-06-22T00:15:40;24.90;56.00
27114;DHT22;14648;49.730;8.614;2023-06-22T00:18:08;24.90;56.20
27114;DHT22;14648;49.730;8.614;2023-06-22T00:20:35;24.80;56.30
27114;DHT22;14648;49.730;8.614;2023-06-22T00:23:05;24.80;56.50
27114;DHT22;14648;49.730;8.614;2023-06-22T00:25:36;24.80;56.60
27114;DHT22;14648;49.730;8.614;2023-06-22T00:28:03;24.70;56.70
27114;DHT22;14648;49.730;8.614;2023-06-22T00:30:31;24.70;56.80
27114;DHT22;14648;49.730;8.614;2023-06-22T00:32:58;24.60;56.80
27114;DHT22;14648;49.730;8.614;2023-06-22T00:35:24;24.60;57.10
27114;DHT22;14648;49.730;8.614;2023-06-22T00:37:59;24.60;57.30
27114;DHT22;14648;49.730;8.614;2023-06-22T00:40:32;24.50;57.50
27114;DHT22;14648;49.730;8.614;2023-06-22T00:42:58;24.50;57.50
27114;DHT22;14648;49.730;8.614;2023-06-22T00:45:24;24.50;57.50
27114;DHT22;14648;49.730;8.614;2023-06-22T00:47:52;24.40;57.50
27114;DHT22;14648;49.730;8.614;2023-06-22T00:50:21;24.50;57.70
27114;DHT22;14648;49.730;8.614;2023-06-22T00:52:51;24.40;57.70
27114;DHT22;14648;49.730;8.614;2023-06-22T00:55:20;24.40;57.80
27114;DHT22;14648;49.730;8.614;2023-06-22T00:57:47;24.40;57.80
27114;DHT22;14648;49.730;8.614;2023-06-22T01:00:14;24.30;57.90
27114;DHT22;14648;49.730;8.614;2023-06-22T01:02:45;24.30;58.00
27114;DHT22;14648;49.730;8.614;2023-06-22T01:05:16;24.30;58.10
27114;DHT22;14648;49.730;8.614;2023-06-22T01:10:43;24.30;58.30
27114;DHT22;14648;49.730;8.614;2023-06-22T01:13:32;24.20;58.30
27114;DHT22;14648;49.730;8.614;2023-06-22T01:16:07;24.20;59.00
27114;DHT22;14648;49.730;8.614;2023-06-22T01:18:40;24.10;59.30
27114;DHT22;14648;49.730;8.614;2023-06-22T01:21:10;24.10;59.70
27114;DHT22;14648;49.730;8.614;2023-06-22T01:26:38;23.90;60.80
27114;DHT22;14648;49.730;8.614;2023-06-22T01:29:27;23.80;61.10
27114;DHT22;14648;49.730;8.614;2023-06-22T01:31:56;23.70;61.30
27114;DHT22;14648;49.730;8.614;2023-06-22T01:34:23;23.60;61.70
27114;DHT22;14648;49.730;8.614;2023-06-22T01:36:50;23.50;62.10
27114;DHT22;14648;49.730;8.614;2023-06-22T01:39:17;23.40;62.50
27114;DHT22;14648;49.730;8.614;2023-06-22T01:41:44;23.30;62.80
27114;DHT22;14648;49.730;8.614;2023-06-22T01:44:10;23.20;62.90
27114;DHT22;14648;49.730;8.614;2023-06-22T01:46:38;23.30;63.30
27114;DHT22;14648;49.730;8.614;2023-06-22T01:49:05;23.30;63.40
27114;DHT22;14648;49.730;8.614;2023-06-22T01:51:31;23.20;63.30
27114;DHT22;14648;49.730;8.614;2023-06-22T01:53:57;23.20;63.80
27114;DHT22;14648;49.730;8.614;2023-06-22T01:56:23;23.20;64.00
27114;DHT22;14648;49.730;8.614;2023-06-22T01:59:11;23.20;64.20
27114;DHT22;14648;49.730;8.614;2023-06-22T02:01:45;23.20;64.50
27114;DHT22;14648;49.730;8.614;2023-06-22T02:04:27;23.20;64.70
27114;DHT22;14648;49.730;8.614;2023-06-22T02:07:00;23.20;64.80
27114;DHT22;14648;49.730;8.614;2023-06-22T02:09:31;23.10;64.70
27114;DHT22;14648;49.730;8.614;2023-06-22T02:11:58;23.20;65.00
27114;DHT22;14648;49.730;8.614;2023-06-22T02:14:25;23.10;65.20
27114;DHT22;14648;49.730;8.614;2023-06-22T02:16:51;23.10;65.40
27114;DHT22;14648;49.730;8.614;2023-06-22T02:19:23;23.10;65.40
27114;DHT22;14648;49.730;8.614;2023-06-22T02:21:50;23.10;65.80
27114;DHT22;14648;49.730;8.614;2023-06-22T02:24:15;23.10;65.70
27114;DHT22;14648;49.730;8.614;2023-06-22T02:26:42;23.00;65.70
27114;DHT22;14648;49.730;8.614;2023-06-22T02:29:10;23.00;65.90
27114;DHT22;14648;49.730;8.614;2023-06-22T02:31:36;23.00;66.00
27114;DHT22;14648;49.730;8.614;2023-06-22T02:34:02;23.00;66.10
27114;DHT22;14648;49.730;8.614;2023-06-22T02:36:28;23.00;66.10
27114;DHT22;14648;49.730;8.614;2023-06-22T02:38:56;23.00;66.20
27114;DHT22;14648;49.730;8.614;2023-06-22T02:41:24;22.90;66.20
27114;DHT22;14648;49.730;8.614;2023-06-22T02:43:50;22.90;66.30
27114;DHT22;14648;49.730;8.614;2023-06-22T02:46:15;22.80;66.40
27114;DHT22;14648;49.730;8.614;2023-06-22T02:48:41;22.80;66.40
27114;DHT22;14648;49.730;8.614;2023-06-22T02:51:07;22.80;66.60
27114;DHT22;14648;49.730;8.614;2023-06-22T02:53:33;22.80;66.80
27114;DHT22;14648;49.730;8.614;2023-06-22T02:56:03;22.80;66.80
27114;DHT22;14648;49.730;8.614;2023-06-22T02:58:32;22.70;66.90
27114;DHT22;14648;49.730;8.614;2023-06-22T03:01:04;22.70;66.90
27114;DHT22;14648;49.730;8.614;2023-06-22T03:03:31;22.70;67.10
27114;DHT22;14648;49.730;8.614;2023-06-22T03:05:56;22.70;67.10
27114;DHT22;14648;49.730;8.614;2023-06-22T03:08:22;22.60;67.10
27114;DHT22;14648;49.730;8.614;2023-06-22T03:10:48;22.60;67.00
27114;DHT22;14648;49.730;8.614;2023-06-22T03:13:14;22.60;67.00
27114;DHT22;14648;49.730;8.614;2023-06-22T03:15:39;22.60;67.10
27114;DHT22;14648;49.730;8.614;2023-06-22T03:18:05;22.60;67.20
27114;DHT22;14648;49.730;8.614;2023-06-22T03:20:30;22.50;67.20
27114;DHT22;14648;49.730;8.614;2023-06-22T03:22:59;22.50;67.40
27114;DHT22;14648;49.730;8.614;2023-06-22T03:25:25;22.50;67.50
27114;DHT22;14648;49.730;8.614;2023-06-22T03:27:50;22.50;67.50
27114;DHT22;14648;49.730;8.614;2023-06-22T03:30:16;22.40;67.30
27114;DHT22;14648;49.730;8.614;2023-06-22T03:32:42;22.40;67.50
27114;DHT22;14648;49.730;8.614;2023-06-22T03:35:09;22.40;67.70
27114;DHT22;14648;49.730;8.614;2023-06-22T03:37:35;22.30;67.90
27114;DHT22;14648;49.730;8.614;2023-06-22T03:40:01;22.30;68.00
27114;DHT22;14648;49.730;8.614;2023-06-22T03:42:29;22.30;68.10
27114;DHT22;14648;49.730;8.614;2023-06-22T03:44:54;22.30;68.20
27114;DHT22;14648;49.730;8.614;2023-06-22T03:47:20;22.30;68.30
27114;DHT22;14648;49.730;8.614;2023-06-22T03:49:46;22.30;68.40
27114;DHT22;14648;49.730;8.614;2023-06-22T03:52:11;22.30;68.30
27114;DHT22;14648;49.730;8.614;2023-06-22T03:54:37;22.30;68.40
27114;DHT22;14648;49.730;8.614;2023-06-22T03:57:03;22.30;68.50
27114;DHT22;14648;49.730;8.614;2023-06-22T03:59:29;22.30;68.60
27114;DHT22;14648;49.730;8.614;2023-06-22T04:01:54;22.20;68.50
27114;DHT22;14648;49.730;8.614;2023-06-22T04:04:20;22.30;68.70
27114;DHT22;14648;49.730;8.614;2023-06-22T04:06:46;22.30;68.80
27114;DHT22;14648;49.730;8.614;2023-06-22T04:09:12;22.30;68.80
27114;DHT22;14648;49.730;8.614;2023-06-22T04:11:37;22.30;69.70
27114;DHT22;14648;49.730;8.614;2023-06-22T04:14:03;22.30;69.00
27114;DHT22;14648;49.730;8.614;2023-06-22T04:16:29;22.30;69.10
27114;DHT22;14648;49.730;8.614;2023-06-22T04:18:54;22.30;69.10
27114;DHT22;14648;49.730;8.614;2023-06-22T04:21:20;22.20;69.20
27114;DHT22;14648;49.730;8.614;2023-06-22T04:23:46;22.20;69.30
27114;DHT22;14648;49.730;8.614;2023-06-22T04:26:13;22.20;69.40
27114;DHT22;14648;49.730;8.614;2023-06-22T04:28:40;22.20;69.60
27114;DHT22;14648;49.730;8.614;2023-06-22T04:31:06;22.20;69.60
27114;DHT22;14648;49.730;8.614;2023-06-22T04:33:32;22.20;69.70
27114;DHT22;14648;49.730;8.614;2023-06-22T04:35:58;22.20;69.70
27114;DHT22;14648;49.730;8.614;2023-06-22T04:38:26;22.20;69.80
27114;DHT22;14648;49.730;8.614;2023-06-22T04:40:52;22.20;69.80
27114;DHT22;14648;49.730;8.614;2023-06-22T04:43:19;22.20;69.80
27114;DHT22;14648;49.730;8.614;2023-06-22T04:45:45;22.20;70.00
27114;DHT22;14648;49.730;8.614;2023-06-22T04:48:11;22.20;70.10
27114;DHT22;14648;49.730;8.614;2023-06-22T04:50:41;22.20;70.20
27114;DHT22;14648;49.730;8.614;2023-06-22T04:53:08;22.20;70.10
27114;DHT22;14648;49.730;8.614;2023-06-22T04:55:35;22.20;70.00
27114;DHT22;14648;49.730;8.614;2023-06-22T04:58:03;22.20;70.00
27114;DHT22;14648;49.730;8.614;2023-06-22T05:00:30;22.30;70.20
27114;DHT22;14648;49.730;8.614;2023-06-22T05:02:56;22.20;70.20
27114;DHT22;14648;49.730;8.614;2023-06-22T05:05:23;22.20;70.20
27114;DHT22;14648;49.730;8.614;2023-06-22T05:07:51;22.30;70.40
27114;DHT22;14648;49.730;8.614;2023-06-22T05:10:19;22.30;70.50
27114;DHT22;14648;49.730;8.614;2023-06-22T05:12:46;22.30;70.40
27114;DHT22;14648;49.730;8.614;2023-06-22T05:15:12;22.30;70.40
27114;DHT22;14648;49.730;8.614;2023-06-22T05:17:38;22.30;70.40
27114;DHT22;14648;49.730;8.614;2023-06-22T05:20:11;22.30;70.40
27114;DHT22;14648;49.730;8.614;2023-06-22T05:22:38;22.30;70.40
27114;DHT22;14648;49.730;8.614;2023-06-22T05:25:10;22.40;70.50
27114;DHT22;14648;49.730;8.614;2023-06-22T05:27:37;22.40;70.60
27114;DHT22;14648;49.730;8.614;2023-06-22T05:30:09;22.40;70.60
27114;DHT22;14648;49.730;8.614;2023-06-22T05:32:36;22.40;70.70
27114;DHT22;14648;49.730;8.614;2023-06-22T05:35:05;22.40;70.70
27114;DHT22;14648;49.730;8.614;2023-06-22T05:37:31;22.50;70.80
27114;DHT22;14648;49.730;8.614;2023-06-22T05:39:56;22.50;70.90
27114;DHT22;14648;49.730;8.614;2023-06-22T05:42:23;22.50;70.80
27114;DHT22;14648;49.730;8.614;2023-06-22T05:44:51;22.50;70.90
27114;DHT22;14648;49.730;8.614;2023-06-22T05:47:18;22.60;70.80
27114;DHT22;14648;49.730;8.614;2023-06-22T05:49:44;22.60;70.70
27114;DHT22;14648;49.730;8.614;2023-06-22T05:52:10;22.60;70.70
27114;DHT22;14648;49.730;8.614;2023-06-22T05:54:35;22.70;70.70
27114;DHT22;14648;49.730;8.614;2023-06-22T05:57:01;22.70;70.60
27114;DHT22;14648;49.730;8.614;2023-06-22T05:59:27;22.80;70.40
27114;DHT22;14648;49.730;8.614;2023-06-22T06:01:53;22.80;70.50
27114;DHT22;14648;49.730;8.614;2023-06-22T06:04:19;22.90;70.50
27114;DHT22;14648;49.730;8.614;2023-06-22T06:06:45;22.90;70.20
27114;DHT22;14648;49.730;8.614;2023-06-22T06:09:13;23.00;70.30
27114;DHT22;14648;49.730;8.614;2023-06-22T06:11:39;23.10;70.30
27114;DHT22;14648;49.730;8.614;2023-06-22T06:14:05;23.10;70.10
27114;DHT22;14648;49.730;8.614;2023-06-22T06:16:31;23.20;70.30
27114;DHT22;14648;49.730;8.614;2023-06-22T06:18:57;23.20;70.30
27114;DHT22;14648;49.730;8.614;2023-06-22T06:21:24;23.30;70.40
27114;DHT22;14648;49.730;8.614;2023-06-22T06:23:49;23.30;70.30
27114;DHT22;14648;49.730;8.614;2023-06-22T06:26:15;23.40;70.20
27114;DHT22;14648;49.730;8.614;2023-06-22T06:28:43;23.50;70.20
27114;DHT22;14648;49.730;8.614;2023-06-22T06:31:09;23.60;70.10
27114;DHT22;14648;49.730;8.614;2023-06-22T06:33:35;23.70;69.80
27114;DHT22;14648;49.730;8.614;2023-06-22T06:36:01;23.80;69.40
27114;DHT22;14648;49.730;8.614;2023-06-22T06:38:29;23.90;69.10
27114;DHT22;14648;49.730;8.614;2023-06-22T06:40:56;24.00;68.70
27114;DHT22;14648;49.730;8.614;2023-06-22T06:43:21;24.10;68.50
27114;DHT22;14648;49.730;8.614;2023-06-22T06:45:48;24.20;68.60
27114;DHT22;14648;49.730;8.614;2023-06-22T06:48:14;24.30;68.30
27114;DHT22;14648;49.730;8.614;2023-06-22T06:50:39;24.30;67.90
27114;DHT22;14648;49.730;8.614;2023-06-22T06:53:05;24.50;68.10
27114;DHT22;14648;49.730;8.614;2023-06-22T06:55:31;24.60;67.70
27114;DHT22;14648;49.730;8.614;2023-06-22T06:57:58;24.60;67.50
27114;DHT22;14648;49.730;8.614;2023-06-22T07:00:25;24.70;67.30
27114;DHT22;14648;49.730;8.614;2023-06-22T07:02:52;24.80;66.80
27114;DHT22;14648;49.730;8.614;2023-06-22T07:05:18;24.90;66.80
27114;DHT22;14648;49.730;8.614;2023-06-22T07:07:43;25.00;66.40
27114;DHT22;14648;49.730;8.614;2023-06-22T07:10:10;25.10;66.20
27114;DHT22;14648;49.730;8.614;2023-06-22T07:12:36;25.20;66.00
27114;DHT22;14648;49.730;8.614;2023-06-22T07:15:09;25.30;65.90
27114;DHT22;14648;49.730;8.614;2023-06-22T07:17:39;25.30;66.00
27114;DHT22;14648;49.730;8.614;2023-06-22T07:20:06;25.40;66.10
27114;DHT22;14648;49.730;8.614;2023-06-22T07:22:43;25.40;65.90
27114;DHT22;14648;49.730;8.614;2023-06-22T07:25:12;25.50;66.10
27114;DHT22;14648;49.730;8.614;2023-06-22T07:27:45;25.50;65.00
27114;DHT22;14648;49.730;8.614;2023-06-22T07:30:31;25.50;64.70
27114;DHT22;14648;49.730;8.614;2023-06-22T07:32:57;25.60;64.70
27114;DHT22;14648;49.730;8.614;2023-06-22T07:35:24;25.70;64.50
27114;DHT22;14648;49.730;8.614;2023-06-22T07:37:50;25.70;64.50
27114;DHT22;14648;49.730;8.614;2023-06-22T07:40:15;25.80;64.40
27114;DHT22;14648;49.730;8.614;2023-06-22T07:42:41;25.80;64.40
27114;DHT22;14648;49.730;8.614;2023-06-22T07:45:07;25.90;64.20
27114;DHT22;14648;49.730;8.614;2023-06-22T07:47:34;26.00;64.70
27114;DHT22;14648;49.730;8.614;2023-06-22T07:50:03;26.10;64.20
27114;DHT22;14648;49.730;8.614;2023-06-22T07:52:30;26.20;63.60
27114;DHT22;14648;49.730;8.614;2023-06-22T07:54:56;26.30;62.90
27114;DHT22;14648;49.730;8.614;2023-06-22T07:57:21;26.40;62.70
27114;DHT22;14648;49.730;8.614;2023-06-22T07:59:47;26.40;62.90
27114;DHT22;14648;49.730;8.614;2023-06-22T08:02:13;26.50;62.90
27114;DHT22;14648;49.730;8.614;2023-06-22T08:04:39;26.60;63.10
27114;DHT22;14648;49.730;8.614;2023-06-22T08:07:05;26.70;63.20
27114;DHT22;14648;49.730;8.614;2023-06-22T08:09:32;26.80;62.70
27114;DHT22;14648;49.730;8.614;2023-06-22T08:11:58;26.90;62.00
27114;DHT22;14648;49.730;8.614;2023-06-22T08:14:29;27.00;62.70
27114;DHT22;14648;49.730;8.614;2023-06-22T08:16:58;27.10;62.10
27114;DHT22;14648;49.730;8.614;2023-06-22T08:19:23;27.20;61.70
27114;DHT22;14648;49.730;8.614;2023-06-22T08:21:49;27.30;62.10
27114;DHT22;14648;49.730;8.614;2023-06-22T08:24:15;27.30;61.60
27114;DHT22;14648;49.730;8.614;2023-06-22T08:26:40;27.50;61.60
27114;DHT22;14648;49.730;8.614;2023-06-22T08:29:06;27.50;60.80
27114;DHT22;14648;49.730;8.614;2023-06-22T08:31:32;27.60;60.40
27114;DHT22;14648;49.730;8.614;2023-06-22T08:33:59;27.70;60.00
27114;DHT22;14648;49.730;8.614;2023-06-22T08:36:26;27.80;59.90
27114;DHT22;14648;49.730;8.614;2023-06-22T08:38:54;27.80;59.60
27114;DHT22;14648;49.730;8.614;2023-06-22T08:41:26;27.90;60.40
27114;DHT22;14648;49.730;8.614;2023-06-22T08:43:53;28.00;60.20
27114;DHT22;14648;49.730;8.614;2023-06-22T08:46:19;28.10;60.00
27114;DHT22;14648;49.730;8.614;2023-06-22T08:48:49;28.10;60.00
27114;DHT22;14648;49.730;8.614;2023-06-22T08:51:15;28.30;60.00
27114;DHT22;14648;49.730;8.614;2023-06-22T08:53:42;28.40;59.20
27114;DHT22;14648;49.730;8.614;2023-06-22T08:56:13;28.50;58.80
27114;DHT22;14648;49.730;8.614;2023-06-22T08:58:38;28.60;58.90
27114;DHT22;14648;49.730;8.614;2023-06-22T09:01:04;28.70;58.10
27114;DHT22;14648;49.730;8.614;2023-06-22T09:03:30;28.80;57.60
27114;DHT22;14648;49.730;8.614;2023-06-22T09:05:58;28.80;57.40
27114;DHT22;14648;49.730;8.614;2023-06-22T09:08:24;28.80;57.20
27114;DHT22;14648;49.730;8.614;2023-06-22T09:10:49;28.90;56.80
27114;DHT22;14648;49.730;8.614;2023-06-22T09:13:15;29.00;57.10
27114;DHT22;14648;49.730;8.614;2023-06-22T09:15:41;29.10;56.70
27114;DHT22;14648;49.730;8.614;2023-06-22T09:18:09;29.20;56.50
27114;DHT22;14648;49.730;8.614;2023-06-22T09:20:36;29.40;56.20
27114;DHT22;14648;49.730;8.614;2023-06-22T09:23:02;29.50;55.70
27114;DHT22;14648;49.730;8.614;2023-06-22T09:25:28;29.60;55.30
27114;DHT22;14648;49.730;8.614;2023-06-22T09:27:53;29.70;55.00
27114;DHT22;14648;49.730;8.614;2023-06-22T09:30:19;29.80;54.90
27114;DHT22;14648;49.730;8.614;2023-06-22T09:32:45;29.70;54.70
27114;DHT22;14648;49.730;8.614;2023-06-22T09:35:11;29.80;54.80
27114;DHT22;14648;49.730;8.614;2023-06-22T09:37:38;29.80;54.60
27114;DHT22;14648;49.730;8.614;2023-06-22T09:40:06;29.90;54.30
27114;DHT22;14648;49.730;8.614;2023-06-22T09:42:36;29.90;53.80
27114;DHT22;14648;49.730;8.614;2023-06-22T09:45:02;29.90;54.00
27114;DHT22;14648;49.730;8.614;2023-06-22T09:47:29;30.00;53.90
27114;DHT22;14648;49.730;8.614;2023-06-22T09:49:55;30.10;53.80
27114;DHT22;14648;49.730;8.614;2023-06-22T09:52:21;30.10;52.80
27114;DHT22;14648;49.730;8.614;2023-06-22T09:54:47;30.20;53.20
27114;DHT22;14648;49.730;8.614;2023-06-22T09:57:13;30.30;53.30
27114;DHT22;14648;49.730;8.614;2023-06-22T09:59:39;30.40;53.30
27114;DHT22;14648;49.730;8.614;2023-06-22T10:02:07;30.50;52.80
27114;DHT22;14648;49.730;8.614;2023-06-22T10:04:34;30.60;52.90
27114;DHT22;14648;49.730;8.614;2023-06-22T10:07:00;30.70;52.50
27114;DHT22;14648;49.730;8.614;2023-06-22T10:09:27;30.90;51.90
27114;DHT22;14648;49.730;8.614;2023-06-22T10:11:53;31.00;52.00
27114;DHT22;14648;49.730;8.614;2023-06-22T10:14:18;31.10;51.60
27114;DHT22;14648;49.730;8.614;2023-06-22T10:16:44;31.20;51.00
27114;DHT22;14648;49.730;8.614;2023-06-22T10:19:10;31.30;50.90
27114;DHT22;14648;49.730;8.614;2023-06-22T10:21:36;31.30;50.40
27114;DHT22;14648;49.730;8.614;2023-06-22T10:24:02;31.20;50.30
27114;DHT22;14648;49.730;8.614;2023-06-22T10:26:32;31.30;50.30
27114;DHT22;14648;49.730;8.614;2023-06-22T10:28:59;31.30;50.20
27114;DHT22;14648;49.730;8.614;2023-06-22T10:31:25;31.40;50.30
27114;DHT22;14648;49.730;8.614;2023-06-22T10:33:51;31.40;50.60
27114;DHT22;14648;49.730;8.614;2023-06-22T10:36:19;31.50;49.80
27114;DHT22;14648;49.730;8.614;2023-06-22T10:38:45;31.60;49.40
27114;DHT22;14648;49.730;8.614;2023-06-22T10:41:12;31.60;49.50
27114;DHT22;14648;49.730;8.614;2023-06-22T10:43:38;31.70;49.30
27114;DHT22;14648;49.730;8.614;2023-06-22T10:46:04;31.90;48.70
27114;DHT22;14648;49.730;8.614;2023-06-22T10:48:30;32.20;48.50
27114;DHT22;14648;49.730;8.614;2023-06-22T10:50:55;32.40;48.00
27114;DHT22;14648;49.730;8.614;2023-06-22T10:53:21;32.50;47.70
27114;DHT22;14648;49.730;8.614;2023-06-22T10:55:47;32.60;47.40
27114;DHT22;14648;49.730;8.614;2023-06-22T10:58:13;32.70;47.10
27114;DHT22;14648;49.730;8.614;2023-06-22T11:00:39;32.60;47.40
27114;DHT22;14648;49.730;8.614;2023-06-22T11:03:04;32.70;47.00
27114;DHT22;14648;49.730;8.614;2023-06-22T11:05:30;32.80;47.80
27114;DHT22;14648;49.730;8.614;2023-06-22T11:07:56;32.80;47.70
27114;DHT22;14648;49.730;8.614;2023-06-22T11:10:22;33.00;48.10
27114;DHT22;14648;49.730;8.614;2023-06-22T11:12:48;33.10;47.80
27114;DHT22;14648;49.730;8.614;2023-06-22T11:15:13;33.10;47.60
27114;DHT22;14648;49.730;8.614;2023-06-22T11:17:39;33.20;46.70
27114;DHT22;14648;49.730;8.614;2023-06-22T11:20:05;33.30;46.30
27114;DHT22;14648;49.730;8.614;2023-06-22T11:22:37;33.30;45.70
27114;DHT22;14648;49.730;8.614;2023-06-22T11:25:05;33.20;44.90
27114;DHT22;14648;49.730;8.614;2023-06-22T11:27:31;33.10;45.30
27114;DHT22;14648;49.730;8.614;2023-06-22T11:29:58;33.10;45.30
27114;DHT22;14648;49.730;8.614;2023-06-22T11:32:24;33.00;45.40
27114;DHT22;14648;49.730;8.614;2023-06-22T11:34:49;33.00;45.10
27114;DHT22;14648;49.730;8.614;2023-06-22T11:37:15;32.90;44.50
27114;DHT22;14648;49.730;8.614;2023-06-22T11:39:42;32.80;44.70
27114;DHT22;14648;49.730;8.614;2023-06-22T11:42:08;32.80;44.80
27114;DHT22;14648;49.730;8.614;2023-06-22T11:44:34;32.80;45.60
27114;DHT22;14648;49.730;8.614;2023-06-22T11:47:00;32.80;45.50
27114;DHT22;14648;49.730;8.614;2023-06-22T11:49:29;32.90;45.10
27114;DHT22;14648;49.730;8.614;2023-06-22T11:51:55;32.90;45.30
27114;DHT22;14648;49.730;8.614;2023-06-22T11:54:21;32.90;44.20
27114;DHT22;14648;49.730;8.614;2023-06-22T11:56:47;33.00;45.00
27114;DHT22;14648;49.730;8.614;2023-06-22T11:59:12;33.10;44.50
27114;DHT22;14648;49.730;8.614;2023-06-22T12:01:38;33.10;44.30
27114;DHT22;14648;49.730;8.614;2023-06-22T12:04:04;33.10;44.10
27114;DHT22;14648;49.730;8.614;2023-06-22T12:06:37;33.10;44.30
27114;DHT22;14648;49.730;8.614;2023-06-22T12:09:04;33.00;43.50
27114;DHT22;14648;49.730;8.614;2023-06-22T12:11:32;33.00;43.70
27114;DHT22;14648;49.730;8.614;2023-06-22T12:13:58;32.90;43.00
27114;DHT22;14648;49.730;8.614;2023-06-22T12:16:27;32.90;43.10
27114;DHT22;14648;49.730;8.614;2023-06-22T12:18:54;32.90;43.30
27114;DHT22;14648;49.730;8.614;2023-06-22T12:21:22;33.00;43.60
27114;DHT22;14648;49.730;8.614;2023-06-22T12:23:48;33.00;42.90
27114;DHT22;14648;49.730;8.614;2023-06-22T12:26:13;33.00;42.40
27114;DHT22;14648;49.730;8.614;2023-06-22T12:28:39;33.00;42.50
27114;DHT22;14648;49.730;8.614;2023-06-22T12:31:05;33.00;42.50
27114;DHT22;14648;49.730;8.614;2023-06-22T12:33:31;33.00;42.30
27114;DHT22;14648;49.730;8.614;2023-06-22T12:35:57;33.00;41.90
27114;DHT22;14648;49.730;8.614;2023-06-22T12:38:22;32.90;41.70
27114;DHT22;14648;49.730;8.614;2023-06-22T12:40:50;33.00;41.80
27114;DHT22;14648;49.730;8.614;2023-06-22T12:43:16;32.90;41.50
27114;DHT22;14648;49.730;8.614;2023-06-22T12:45:42;32.80;41.30
27114;DHT22;14648;49.730;8.614;2023-06-22T12:48:08;32.80;40.90
27114;DHT22;14648;49.730;8.614;2023-06-22T12:50:34;32.80;41.10
27114;DHT22;14648;49.730;8.614;2023-06-22T12:53:00;32.80;41.20
27114;DHT22;14648;49.730;8.614;2023-06-22T12:55:27;32.80;41.50
27114;DHT22;14648;49.730;8.614;2023-06-22T12:57:53;32.80;42.00
27114;DHT22;14648;49.730;8.614;2023-06-22T13:00:19;32.80;41.70
27114;DHT22;14648;49.730;8.614;2023-06-22T13:02:45;32.90;41.50
27114;DHT22;14648;49.730;8.614;2023-06-22T13:05:11;33.00;41.70
27114;DHT22;14648;49.730;8.614;2023-06-22T13:07:37;33.10;41.00
27114;DHT22;14648;49.730;8.614;2023-06-22T13:10:06;33.20;41.00
27114;DHT22;14648;49.730;8.614;2023-06-22T13:12:32;33.30;40.70
27114;DHT22;14648;49.730;8.614;2023-06-22T13:14:58;33.40;40.50
27114;DHT22;14648;49.730;8.614;2023-06-22T13:17:28;33.40;40.70
27114;DHT22;14648;49.730;8.614;2023-06-22T13:19:54;33.50;40.60
27114;DHT22;14648;49.730;8.614;2023-06-22T13:22:29;33.60;40.40
27114;DHT22;14648;49.730;8.614;2023-06-22T13:25:00;33.70;40.40
27114;DHT22;14648;49.730;8.614;2023-06-22T13:27:28;33.70;39.90
27114;DHT22;14648;49.730;8.614;2023-06-22T13:29:54;33.80;39.80
27114;DHT22;14648;49.730;8.614;2023-06-22T13:32:20;33.70;39.70
27114;DHT22;14648;49.730;8.614;2023-06-22T13:34:45;33.70;39.50
27114;DHT22;14648;49.730;8.614;2023-06-22T13:37:14;33.70;39.70
27114;DHT22;14648;49.730;8.614;2023-06-22T13:39:46;33.80;39.60
27114;DHT22;14648;49.730;8.614;2023-06-22T13:42:14;33.90;39.10
27114;DHT22;14648;49.730;8.614;2023-06-22T13:44:40;34.00;39.40
27114;DHT22;14648;49.730;8.614;2023-06-22T13:47:06;34.00;39.00
27114;DHT22;14648;49.730;8.614;2023-06-22T13:49:32;34.10;38.70
27114;DHT22;14648;49.730;8.614;2023-06-22T13:51:59;34.20;38.50
27114;DHT22;14648;49.730;8.614;2023-06-22T13:54:25;34.10;38.70
27114;DHT22;14648;49.730;8.614;2023-06-22T13:56:50;34.10;38.30
27114;DHT22;14648;49.730;8.614;2023-06-22T13:59:16;34.10;38.30
27114;DHT22;14648;49.730;8.614;2023-06-22T14:01:42;34.00;38.00
27114;DHT22;14648;49.730;8.614;2023-06-22T14:04:08;34.00;37.80
27114;DHT22;14648;49.730;8.614;2023-06-22T14:06:35;34.10;37.50
27114;DHT22;14648;49.730;8.614;2023-06-22T14:09:00;34.20;37.50
27114;DHT22;14648;49.730;8.614;2023-06-22T14:11:26;34.10;37.40
27114;DHT22;14648;49.730;8.614;2023-06-22T14:13:54;34.20;37.40
27114;DHT22;14648;49.730;8.614;2023-06-22T14:16:20;34.20;36.90
27114;DHT22;14648;49.730;8.614;2023-06-22T14:18:48;34.20;37.10
27114;DHT22;14648;49.730;8.614;2023-06-22T14:21:17;34.30;37.50
27114;DHT22;14648;49.730;8.614;2023-06-22T14:23:44;34.40;37.10
27114;DHT22;14648;49.730;8.614;2023-06-22T14:26:17;34.50;37.40
27114;DHT22;14648;49.730;8.614;2023-06-22T14:28:45;34.50;37.60
27114;DHT22;14648;49.730;8.614;2023-06-22T14:31:14;34.60;37.40
27114;DHT22;14648;49.730;8.614;2023-06-22T14:33:40;34.70;37.40
27114;DHT22;14648;49.730;8.614;2023-06-22T14:36:09;34.60;37.50
27114;DHT22;14648;49.730;8.614;2023-06-22T14:38:35;34.50;37.30
27114;DHT22;14648;49.730;8.614;2023-06-22T14:41:01;34.40;37.60
27114;DHT22;14648;49.730;8.614;2023-06-22T14:43:27;34.30;37.70
27114;DHT22;14648;49.730;8.614;2023-06-22T14:45:52;34.10;37.90
27114;DHT22;14648;49.730;8.614;2023-06-22T14:48:18;33.90;37.70
27114;DHT22;14648;49.730;8.614;2023-06-22T14:50:44;33.70;37.90
27114;DHT22;14648;49.730;8.614;2023-06-22T14:53:09;33.60;38.40
27114;DHT22;14648;49.730;8.614;2023-06-22T14:55:35;33.40;38.40
27114;DHT22;14648;49.730;8.614;2023-06-22T14:58:01;33.40;38.70
27114;DHT22;14648;49.730;8.614;2023-06-22T15:00:26;33.30;38.70
27114;DHT22;14648;49.730;8.614;2023-06-22T15:02:52;33.30;38.60
27114;DHT22;14648;49.730;8.614;2023-06-22T15:05:18;33.20;38.50
27114;DHT22;14648;49.730;8.614;2023-06-22T15:07:44;33.20;38.70
27114;DHT22;14648;49.730;8.614;2023-06-22T15:10:10;33.20;38.90
27114;DHT22;14648;49.730;8.614;2023-06-22T15:12:36;33.10;38.90
27114;DHT22;14648;49.730;8.614;2023-06-22T15:15:01;33.10;39.20
27114;DHT22;14648;49.730;8.614;2023-06-22T15:17:27;33.00;39.30
27114;DHT22;14648;49.730;8.614;2023-06-22T15:19:57;33.10;39.40
27114;DHT22;14648;49.730;8.614;2023-06-22T15:22:23;33.00;39.20
27114;DHT22;14648;49.730;8.614;2023-06-22T15:24:48;33.00;39.30
27114;DHT22;14648;49.730;8.614;2023-06-22T15:27:14;32.90;38.80
27114;DHT22;14648;49.730;8.614;2023-06-22T15:29:40;32.90;38.90
27114;DHT22;14648;49.730;8.614;2023-06-22T15:32:06;32.90;39.00
27114;DHT22;14648;49.730;8.614;2023-06-22T15:34:32;32.90;39.00